createdAt,value
2018-02-16T00:01:00.502Z,0.90
2018-02-16T00:03:27.957Z,1.00
2018-02-16T00:05:55.415Z,1.10
2018-02-16T00:08:22.865Z,1.10
2018-02-16T00:10:50.321Z,1.10
2018-02-16T00:13:18.381Z,1.10
2018-02-16T00:15:46.118Z,1.10
2018-02-16T00:18:14.607Z,1.10
2018-02-16T00:20:43.365Z,1.10
2018-02-16T00:23:11.581Z,1.20
2018-02-16T00:25:39.751Z,1.20
2018-02-16T00:28:07.210Z,1.20
2018-02-16T00:30:35.225Z,1.20
2018-02-16T00:33:02.681Z,1.20
2018-02-16T00:35:30.129Z,1.20
2018-02-16T00:37:57.593Z,1.30
2018-02-16T00:40:25.046Z,1.30
2018-02-16T00:42:52.951Z,1.30
2018-02-16T00:45:20.392Z,1.20
2018-02-16T00:47:48.624Z,1.10
2018-02-16T00:50:16.073Z,1.10
2018-02-16T00:52:44.832Z,1.00
2018-02-16T00:55:12.281Z,1.00
2018-02-16T00:57:39.725Z,1.00
2018-02-16T01:00:07.945Z,1.00
2018-02-16T01:02:35.400Z,1.00
2018-02-16T01:05:03.431Z,1.00
2018-02-16T01:07:30.846Z,0.90
2018-02-16T01:09:58.302Z,0.90
2018-02-16T01:12:25.753Z,0.90
2018-02-16T01:14:53.212Z,0.90
2018-02-16T01:17:21.106Z,0.80
2018-02-16T01:19:49.321Z,0.80
2018-02-16T01:22:16.773Z,0.80
2018-02-16T01:24:44.224Z,0.80
2018-02-16T01:27:12.248Z,0.70
2018-02-16T01:29:39.720Z,0.70
2018-02-16T01:32:07.937Z,0.70
2018-02-16T01:34:35.819Z,0.70
2018-02-16T01:37:03.286Z,0.70
2018-02-16T01:39:31.165Z,0.60
2018-02-16T01:41:58.617Z,0.60
2018-02-16T01:44:26.078Z,0.60
2018-02-16T01:46:53.527Z,0.50
2018-02-16T01:49:21.633Z,0.50
2018-02-16T01:51:49.099Z,0.50
2018-02-16T01:54:16.541Z,0.40
2018-02-16T01:56:44.766Z,0.40
2018-02-16T01:59:12.632Z,0.40
2018-02-16T02:01:40.096Z,0.40
2018-02-16T02:04:07.551Z,0.50
2018-02-16T02:06:36.502Z,0.50
2018-02-16T02:09:03.960Z,0.40
2018-02-16T02:11:31.967Z,0.40
2018-02-16T02:13:59.423Z,0.40
2018-02-16T02:16:26.873Z,0.50
2018-02-16T02:18:54.342Z,0.60
2018-02-16T02:21:22.565Z,0.60
2018-02-16T02:23:50.782Z,0.60
2018-02-16T02:26:18.671Z,0.50
2018-02-16T02:28:46.112Z,0.60
2018-02-16T02:31:13.586Z,0.60
2018-02-16T02:33:41.611Z,0.50
2018-02-16T02:36:09.062Z,0.50
2018-02-16T02:38:36.937Z,0.50
2018-02-16T02:41:04.397Z,0.50
2018-02-16T02:43:32.132Z,0.50
2018-02-16T02:46:00.145Z,0.50
2018-02-16T02:48:27.618Z,0.50
2018-02-16T02:50:55.060Z,0.40
2018-02-16T02:53:22.516Z,0.40
2018-02-16T02:55:50.300Z,0.40
2018-02-16T02:58:17.741Z,0.40
2018-02-16T03:00:45.218Z,0.30
2018-02-16T03:03:13.429Z,0.20
2018-02-16T03:05:40.886Z,0.20
2018-02-16T03:08:09.155Z,0.20
2018-02-16T03:10:36.626Z,0.20
2018-02-16T03:13:04.086Z,0.20
2018-02-16T03:15:31.969Z,0.20
2018-02-16T03:17:59.865Z,0.10
2018-02-16T03:20:27.889Z,0.10
2018-02-16T03:22:56.113Z,0.10
2018-02-16T03:25:24.769Z,0.10
2018-02-16T03:27:52.231Z,0.10
2018-02-16T03:30:19.690Z,0.10
2018-02-16T03:32:47.572Z,0.10
2018-02-16T03:35:15.796Z,0.00
2018-02-16T03:37:43.253Z,0.00
2018-02-16T03:40:10.724Z,0.00
2018-02-16T03:42:38.181Z,0.00
2018-02-16T03:45:06.399Z,0.00
2018-02-16T03:47:34.617Z,0.00
2018-02-16T03:50:02.109Z,0.00
2018-02-16T03:52:29.564Z,0.00
2018-02-16T03:54:57.022Z,-0.10
2018-02-16T03:57:24.473Z,-0.20
2018-02-16T03:59:51.929Z,-0.20
2018-02-16T04:02:19.391Z,-0.30
2018-02-16T04:04:46.919Z,-0.30
2018-02-16T04:07:14.372Z,-0.40
2018-02-16T04:09:41.848Z,-0.50
2018-02-16T04:12:09.304Z,-0.70
2018-02-16T04:14:36.765Z,-0.80
2018-02-16T04:17:04.933Z,-0.90
2018-02-16T04:19:32.665Z,-1.00
2018-02-16T04:22:00.122Z,-1.00
2018-02-16T04:24:27.575Z,-0.90
2018-02-16T04:26:57.610Z,-1.00
2018-02-16T04:29:25.070Z,-1.00
2018-02-16T04:31:52.528Z,-1.10
2018-02-16T04:34:20.759Z,-1.20
2018-02-16T04:36:50.669Z,-1.20
2018-02-16T04:39:18.128Z,-1.20
2018-02-16T04:41:46.018Z,-1.20
2018-02-16T04:44:13.480Z,-1.20
2018-02-16T04:46:40.929Z,-1.20
2018-02-16T04:49:09.199Z,-1.30
2018-02-16T04:51:36.653Z,-1.30
2018-02-16T04:54:04.663Z,-1.30
2018-02-16T04:56:32.126Z,-1.30
2018-02-16T04:58:59.584Z,-1.30
2018-02-16T05:01:27.050Z,-1.30
2018-02-16T05:03:54.942Z,-1.20
2018-02-16T05:06:25.018Z,-1.20
2018-02-16T05:08:52.900Z,-1.20
2018-02-16T05:11:20.894Z,-1.10
2018-02-16T05:13:48.353Z,-1.20
2018-02-16T05:16:15.814Z,-1.20
2018-02-16T05:18:43.701Z,-1.20
2018-02-16T05:21:11.722Z,-1.30
2018-02-16T05:23:39.949Z,-1.50
2018-02-16T05:26:07.397Z,-1.50
2018-02-16T05:28:34.861Z,-1.60
2018-02-16T05:31:02.314Z,-1.60
2018-02-16T05:33:29.777Z,-1.70
2018-02-16T05:35:57.236Z,-1.80
2018-02-16T05:38:28.540Z,-1.80
2018-02-16T05:40:56.019Z,-1.90
2018-02-16T05:43:23.467Z,-2.00
2018-02-16T05:45:50.928Z,-2.10
2018-02-16T05:48:18.389Z,-2.10
2018-02-16T05:50:52.345Z,-2.10
2018-02-16T05:53:20.343Z,-1.90
2018-02-16T05:55:49.107Z,-1.80
2018-02-16T05:58:16.979Z,-1.80
2018-02-16T06:00:46.867Z,-1.70
2018-02-16T06:03:14.749Z,-1.70
2018-02-16T06:05:42.208Z,-1.60
2018-02-16T06:08:10.173Z,-1.60
2018-02-16T06:10:37.633Z,-1.50
2018-02-16T06:13:05.709Z,-1.50
2018-02-16T06:15:33.942Z,-1.40
2018-02-16T06:18:01.401Z,-1.50
2018-02-16T06:20:28.893Z,-1.40
2018-02-16T06:22:56.781Z,-1.40
2018-02-16T06:25:24.237Z,-1.40
2018-02-16T06:27:51.699Z,-1.40
2018-02-16T06:30:19.684Z,-1.50
2018-02-16T06:32:47.577Z,-1.50
2018-02-16T06:35:15.029Z,-1.60
2018-02-16T06:37:43.195Z,-1.60
2018-02-16T06:40:12.356Z,-1.60
2018-02-16T06:42:39.823Z,-1.50
2018-02-16T06:45:08.337Z,-1.50
2018-02-16T06:47:35.801Z,-1.50
2018-02-16T06:50:03.266Z,-1.50
2018-02-16T06:52:31.293Z,-1.50
2018-02-16T06:54:59.192Z,-1.40
2018-02-16T06:57:27.373Z,-1.30
2018-02-16T06:59:54.843Z,-1.20
2018-02-16T07:02:22.309Z,-1.10
2018-02-16T07:04:50.530Z,-1.00
2018-02-16T07:07:17.988Z,-1.00
2018-02-16T07:09:45.444Z,-0.90
2018-02-16T07:12:12.905Z,-0.90
2018-02-16T07:14:40.369Z,-0.80
2018-02-16T07:17:07.833Z,-0.70
2018-02-16T07:19:36.296Z,-0.70
2018-02-16T07:22:04.328Z,-0.70
2018-02-16T07:24:31.789Z,-0.60
2018-02-16T07:26:59.265Z,-0.60
2018-02-16T07:29:26.725Z,-0.60
2018-02-16T07:31:54.809Z,-0.60
2018-02-16T07:34:22.853Z,-0.60
2018-02-16T07:36:50.850Z,-0.50
2018-02-16T07:39:18.308Z,-0.50
2018-02-16T07:41:46.043Z,-0.40
2018-02-16T07:44:13.510Z,-0.30
2018-02-16T07:46:42.169Z,-0.20
2018-02-16T07:49:10.406Z,0.00
2018-02-16T07:51:38.124Z,0.00
2018-02-16T07:54:05.581Z,0.10
2018-02-16T07:56:33.035Z,0.10
2018-02-16T07:59:00.497Z,0.10
2018-02-16T08:01:28.525Z,0.20
2018-02-16T08:03:55.973Z,0.30
2018-02-16T08:06:23.441Z,0.50
2018-02-16T08:08:51.670Z,0.80
2018-02-16T08:11:21.693Z,0.80
2018-02-16T08:13:49.169Z,1.00
2018-02-16T08:16:16.625Z,1.30
2018-02-16T08:18:44.084Z,1.30
2018-02-16T08:21:11.538Z,1.30
2018-02-16T08:23:38.992Z,1.30
2018-02-16T08:26:06.458Z,1.20
2018-02-16T08:28:33.910Z,1.20
2018-02-16T08:31:01.806Z,1.20
2018-02-16T08:33:30.098Z,1.20
2018-02-16T08:35:57.560Z,1.10
2018-02-16T08:38:25.018Z,1.20
2018-02-16T08:40:52.480Z,1.20
2018-02-16T08:43:20.675Z,1.30
2018-02-16T08:45:48.150Z,1.40
2018-02-16T08:48:15.597Z,1.40
2018-02-16T08:50:43.462Z,1.40
2018-02-16T08:53:11.133Z,1.50
2018-02-16T08:55:38.583Z,1.60
2018-02-16T08:58:06.030Z,1.80
2018-02-16T09:00:33.703Z,1.80
2018-02-16T09:03:01.713Z,1.90
2018-02-16T09:05:29.594Z,2.00
2018-02-16T09:07:57.473Z,2.10
2018-02-16T09:10:25.141Z,2.20
2018-02-16T09:12:52.625Z,2.40
2018-02-16T09:15:20.082Z,2.30
2018-02-16T09:17:47.528Z,2.20
2018-02-16T09:20:15.048Z,2.00
2018-02-16T09:22:42.501Z,2.00
2018-02-16T09:25:09.979Z,2.00
2018-02-16T09:27:37.429Z,2.10
2018-02-16T09:30:06.150Z,2.00
2018-02-16T09:32:33.605Z,2.00
2018-02-16T09:35:01.060Z,2.00
2018-02-16T09:37:29.315Z,2.20
2018-02-16T09:39:57.462Z,2.40
2018-02-16T09:42:24.920Z,2.50
2018-02-16T09:44:52.373Z,2.40
2018-02-16T09:47:19.837Z,2.60
2018-02-16T09:49:47.291Z,2.50
2018-02-16T09:52:15.321Z,2.60
2018-02-16T09:54:43.551Z,2.70
2018-02-16T09:57:11.024Z,2.70
2018-02-16T09:59:38.473Z,2.70
2018-02-16T10:02:05.937Z,2.70
2018-02-16T10:04:33.825Z,2.70
2018-02-16T10:07:02.050Z,3.10
2018-02-16T10:09:30.037Z,3.10
2018-02-16T10:11:57.500Z,3.20
2018-02-16T10:14:24.951Z,3.20
2018-02-16T10:16:52.401Z,3.60
2018-02-16T10:19:19.862Z,3.90
2018-02-16T10:21:47.316Z,4.10
2018-02-16T10:24:15.074Z,4.10
2018-02-16T10:26:42.523Z,4.40
2018-02-16T10:29:09.960Z,4.50
2018-02-16T10:31:37.421Z,4.80
2018-02-16T10:34:05.862Z,4.90
2018-02-16T10:36:34.073Z,5.40
2018-02-16T10:39:02.220Z,5.40
2018-02-16T10:41:30.441Z,5.80
2018-02-16T10:43:58.109Z,5.80
2018-02-16T10:46:25.564Z,5.90
2018-02-16T10:48:55.469Z,6.00
2018-02-16T10:51:23.132Z,6.30
2018-02-16T10:53:53.732Z,6.30
2018-02-16T10:56:21.613Z,6.00
2018-02-16T10:58:49.476Z,5.90
2018-02-16T11:01:18.822Z,5.70
2018-02-16T11:03:51.937Z,5.60
2018-02-16T11:06:26.281Z,5.90
2018-02-16T11:09:01.241Z,5.80
2018-02-16T11:11:29.488Z,5.80
2018-02-16T11:13:57.341Z,5.80
2018-02-16T11:16:24.805Z,5.50
2018-02-16T11:18:52.248Z,5.30
2018-02-16T11:21:19.722Z,5.40
2018-02-16T11:23:47.176Z,5.40
2018-02-16T11:26:14.637Z,5.60
2018-02-16T11:28:42.401Z,5.90
2018-02-16T11:31:12.685Z,5.70
2018-02-16T11:33:40.917Z,6.30
2018-02-16T11:36:08.758Z,6.30
2018-02-16T11:38:36.202Z,7.10
2018-02-16T11:41:04.087Z,7.00
2018-02-16T11:43:31.542Z,6.70
2018-02-16T11:45:59.001Z,6.30
2018-02-16T11:48:26.449Z,6.10
2018-02-16T11:50:54.204Z,6.30
2018-02-16T11:53:21.666Z,6.30
2018-02-16T11:55:49.538Z,6.30
2018-02-16T11:58:17.541Z,6.40
2018-02-16T12:00:45.541Z,6.60
2018-02-16T12:03:14.033Z,7.30
2018-02-16T12:05:42.254Z,7.40
2018-02-16T12:08:09.709Z,7.40
2018-02-16T12:10:37.165Z,7.80
2018-02-16T12:13:05.254Z,8.20
2018-02-16T12:15:33.141Z,8.70
2018-02-16T12:18:01.492Z,10.00
2018-02-16T12:20:31.389Z,10.00
2018-02-16T12:22:58.865Z,11.40
2018-02-16T12:25:26.326Z,12.50
2018-02-16T12:27:54.044Z,13.70
2018-02-16T12:30:21.502Z,15.00
2018-02-16T12:32:51.062Z,16.20
2018-02-16T12:35:19.305Z,16.20
2018-02-16T12:37:46.769Z,16.20
2018-02-16T12:40:14.232Z,15.90
2018-02-16T12:42:41.701Z,15.90
2018-02-16T12:45:09.154Z,15.80
2018-02-16T12:47:36.761Z,15.20
2018-02-16T12:50:04.223Z,15.00
2018-02-16T12:52:32.216Z,15.30
2018-02-16T12:55:00.460Z,14.80
2018-02-16T12:57:29.745Z,14.20
2018-02-16T12:59:57.203Z,14.10
2018-02-16T13:02:24.657Z,14.50
2018-02-16T13:04:52.232Z,14.20
2018-02-16T13:07:19.819Z,13.80
2018-02-16T13:09:47.831Z,14.30
2018-02-16T13:12:16.057Z,15.00
2018-02-16T13:14:43.972Z,14.90
2018-02-16T13:17:12.217Z,15.50
2018-02-16T13:19:39.764Z,15.50
2018-02-16T13:22:07.229Z,15.70
2018-02-16T13:24:34.692Z,16.00
2018-02-16T13:27:02.157Z,16.30
2018-02-16T13:29:30.047Z,15.90
2018-02-16T13:31:57.562Z,15.70
2018-02-16T13:34:25.413Z,15.30
2018-02-16T13:36:53.289Z,15.10
2018-02-16T13:39:20.745Z,15.40
2018-02-16T13:41:49.141Z,15.20
2018-02-16T13:44:16.686Z,15.00
2018-02-16T13:46:44.681Z,15.00
2018-02-16T13:49:19.564Z,14.80
2018-02-16T13:51:47.017Z,14.80
2018-02-16T13:54:15.039Z,15.00
2018-02-16T13:56:44.135Z,14.40
2018-02-16T13:59:11.601Z,14.40
2018-02-16T14:01:39.809Z,12.30
2018-02-16T14:04:07.298Z,12.30
2018-02-16T14:06:34.754Z,11.60
2018-02-16T14:09:02.306Z,11.10
2018-02-16T14:11:29.862Z,10.70
2018-02-16T14:13:57.314Z,10.30
2018-02-16T14:16:24.770Z,10.10
2018-02-16T14:18:52.221Z,9.80
2018-02-16T14:21:19.945Z,9.70
2018-02-16T14:23:48.157Z,9.40
2018-02-16T14:26:15.626Z,9.40
2018-02-16T14:28:43.077Z,9.20
2018-02-16T14:31:10.530Z,9.10
2018-02-16T14:33:38.373Z,9.00
2018-02-16T14:36:05.809Z,9.00
2018-02-16T14:38:33.319Z,8.90
2018-02-16T14:41:00.762Z,9.00
2018-02-16T14:43:28.212Z,9.30
2018-02-16T14:45:55.667Z,10.10
2018-02-16T14:48:23.657Z,11.00
2018-02-16T14:50:51.218Z,11.50
2018-02-16T14:53:19.474Z,12.10
2018-02-16T14:55:46.941Z,12.80
2018-02-16T14:58:14.842Z,13.40
2018-02-16T15:00:43.066Z,13.90
2018-02-16T15:03:10.838Z,13.90
2018-02-16T15:05:38.308Z,13.90
2018-02-16T15:08:05.761Z,14.00
2018-02-16T15:10:33.312Z,14.60
2018-02-16T15:13:01.091Z,14.80
2018-02-16T15:15:29.044Z,14.70
2018-02-16T15:17:56.962Z,14.30
2018-02-16T15:20:24.649Z,14.50
2018-02-16T15:22:52.104Z,14.30
2018-02-16T15:25:19.556Z,14.40
2018-02-16T15:27:47.049Z,13.90
2018-02-16T15:30:14.921Z,13.30
2018-02-16T15:32:42.366Z,12.40
2018-02-16T15:35:10.128Z,11.20
2018-02-16T15:37:38.531Z,10.40
2018-02-16T15:40:05.949Z,9.70
2018-02-16T15:42:33.420Z,9.00
2018-02-16T15:45:00.881Z,8.50
2018-02-16T15:47:28.746Z,8.10
2018-02-16T15:49:56.200Z,7.80
2018-02-16T15:52:23.654Z,7.50
2018-02-16T15:54:51.113Z,7.20
2018-02-16T15:57:18.969Z,7.00
2018-02-16T15:59:46.835Z,6.80
2018-02-16T16:02:14.401Z,6.60
2018-02-16T16:04:41.852Z,6.50
2018-02-16T16:07:09.292Z,6.40
2018-02-16T16:09:36.745Z,6.20
2018-02-16T16:12:04.758Z,6.10
2018-02-16T16:14:32.264Z,5.90
2018-02-16T16:17:00.232Z,5.80
2018-02-16T16:19:28.294Z,5.60
2018-02-16T16:21:55.797Z,5.50
2018-02-16T16:24:23.684Z,5.30
2018-02-16T16:26:52.210Z,4.90
2018-02-16T16:29:20.232Z,4.90
2018-02-16T16:31:48.166Z,4.60
2018-02-16T16:34:15.585Z,4.30
2018-02-16T16:36:43.098Z,4.10
2018-02-16T16:39:10.977Z,3.90
2018-02-16T16:41:38.446Z,3.80
2018-02-16T16:44:06.655Z,3.30
2018-02-16T16:46:34.509Z,3.30
2018-02-16T16:49:01.994Z,3.10
2018-02-16T16:51:29.430Z,3.00
2018-02-16T16:53:56.893Z,3.00
2018-02-16T16:56:24.386Z,3.00
2018-02-16T16:58:51.838Z,3.10
2018-02-16T17:01:19.280Z,3.00
2018-02-16T17:03:47.501Z,3.10
2018-02-16T17:06:15.724Z,2.90
2018-02-16T17:08:43.876Z,2.90
2018-02-16T17:11:11.338Z,2.70
2018-02-16T17:13:38.789Z,2.50
2018-02-16T17:16:06.866Z,2.30
2018-02-16T17:18:35.019Z,2.10
2018-02-16T17:21:02.473Z,1.90
2018-02-16T17:23:29.929Z,1.80
2018-02-16T17:25:57.372Z,1.70
2018-02-16T17:28:25.606Z,1.40
2018-02-16T17:30:54.057Z,1.40
2018-02-16T17:33:22.592Z,1.40
2018-02-16T17:35:50.489Z,1.40
2018-02-16T17:38:17.944Z,1.30
2018-02-16T17:40:45.392Z,1.10
2018-02-16T17:43:14.100Z,1.20
2018-02-16T17:45:41.559Z,1.20
2018-02-16T17:48:09.007Z,1.30
2018-02-16T17:50:36.456Z,1.30
2018-02-16T17:53:04.448Z,1.30
2018-02-16T17:55:31.897Z,1.20
2018-02-16T17:57:59.352Z,1.20
2018-02-16T18:00:26.805Z,1.20
2018-02-16T18:02:56.174Z,1.00
2018-02-16T18:05:24.638Z,1.00
2018-02-16T18:07:52.087Z,1.00
2018-02-16T18:10:19.534Z,1.10
2018-02-16T18:12:47.529Z,1.10
2018-02-16T18:15:15.747Z,1.00
2018-02-16T18:17:43.832Z,1.00
2018-02-16T18:20:11.296Z,1.00
2018-02-16T18:22:38.752Z,1.00
2018-02-16T18:25:06.209Z,0.90
2018-02-16T18:27:33.658Z,0.90
2018-02-16T18:30:01.115Z,1.00
2018-02-16T18:32:28.960Z,1.00
2018-02-16T18:34:56.431Z,1.10
2018-02-16T18:37:24.192Z,1.10
2018-02-16T18:39:52.433Z,1.10
2018-02-16T18:42:20.120Z,1.20
2018-02-16T18:44:47.565Z,1.30
2018-02-16T18:47:15.022Z,1.30
2018-02-16T18:49:42.613Z,1.20
2018-02-16T18:52:10.085Z,1.20
2018-02-16T18:54:41.431Z,1.20
2018-02-16T18:57:09.141Z,1.20
2018-02-16T18:59:36.602Z,1.20
2018-02-16T19:02:04.065Z,1.20
2018-02-16T19:04:32.078Z,1.10
2018-02-16T19:06:59.592Z,1.00
2018-02-16T19:09:27.818Z,0.90
2018-02-16T19:11:55.273Z,0.90
2018-02-16T19:14:22.720Z,0.90
2018-02-16T19:16:50.516Z,0.90
2018-02-16T19:19:18.987Z,1.00
2018-02-16T19:21:46.516Z,0.90
2018-02-16T19:24:14.436Z,0.90
2018-02-16T19:26:42.451Z,0.70
2018-02-16T19:29:09.913Z,0.60
2018-02-16T19:31:41.456Z,0.30
2018-02-16T19:34:08.920Z,0.30
2018-02-16T19:36:38.458Z,0.40
2018-02-16T19:39:06.677Z,0.40
2018-02-16T19:41:34.749Z,0.30
2018-02-16T19:44:02.213Z,0.30
2018-02-16T19:46:29.685Z,0.20
2018-02-16T19:48:57.141Z,0.20
2018-02-16T19:51:24.605Z,0.20
2018-02-16T19:53:52.065Z,0.20
2018-02-16T19:56:19.525Z,0.20
2018-02-16T19:58:48.197Z,0.10
2018-02-16T20:01:15.652Z,0.10
2018-02-16T20:03:43.257Z,0.00
2018-02-16T20:06:11.301Z,-0.20
2018-02-16T20:08:39.539Z,-0.20
2018-02-16T20:11:07.005Z,-0.20
2018-02-16T20:13:34.472Z,-0.30
2018-02-16T20:16:02.547Z,-0.40
2018-02-16T20:18:30.012Z,-0.30
2018-02-16T20:20:58.253Z,-0.30
2018-02-16T20:23:26.494Z,-0.20
2018-02-16T20:25:54.226Z,-0.20
2018-02-16T20:28:21.680Z,-0.10
2018-02-16T20:30:49.901Z,0.00
2018-02-16T20:33:19.973Z,-0.10
2018-02-16T20:35:48.643Z,-0.20
2018-02-16T20:38:16.241Z,-0.30
2018-02-16T20:40:43.708Z,-0.40
2018-02-16T20:43:11.169Z,-0.60
2018-02-16T20:45:39.218Z,-0.60
2018-02-16T20:48:06.745Z,-0.60
2018-02-16T20:50:34.169Z,-0.50
2018-02-16T20:53:01.635Z,-0.40
2018-02-16T20:55:29.110Z,-0.40
2018-02-16T20:57:59.017Z,-0.50
2018-02-16T21:00:26.489Z,-0.60
2018-02-16T21:02:53.958Z,-0.70
2018-02-16T21:05:22.413Z,-0.70
2018-02-16T21:07:49.871Z,-0.80
2018-02-16T21:10:17.335Z,-0.80
2018-02-16T21:12:44.802Z,-0.80
2018-02-16T21:15:13.074Z,-0.90
2018-02-16T21:17:40.522Z,-0.90
2018-02-16T21:20:07.983Z,-1.00
2018-02-16T21:22:35.445Z,-1.00
2018-02-16T21:25:02.905Z,-1.00
2018-02-16T21:27:31.130Z,-1.00
2018-02-16T21:30:01.173Z,-1.10
2018-02-16T21:32:29.448Z,-1.10
2018-02-16T21:34:58.442Z,-1.20
2018-02-16T21:37:25.904Z,-1.20
2018-02-16T21:39:54.135Z,-1.20
2018-02-16T21:42:21.632Z,-1.20
2018-02-16T21:44:49.478Z,-1.20
2018-02-16T21:47:16.937Z,-1.20
2018-02-16T21:49:44.505Z,-1.20
2018-02-16T21:52:11.964Z,-1.10
2018-02-16T21:54:39.517Z,-1.20
2018-02-16T21:57:06.980Z,-1.20
2018-02-16T21:59:35.213Z,-1.20
2018-02-16T22:02:02.690Z,-1.30
2018-02-16T22:04:33.070Z,-1.20
2018-02-16T22:07:01.928Z,-1.20
2018-02-16T22:09:29.412Z,-1.20
2018-02-16T22:11:58.105Z,-1.30
2018-02-16T22:14:26.344Z,-1.40
2018-02-16T22:16:55.321Z,-1.40
2018-02-16T22:19:22.804Z,-1.40
2018-02-16T22:21:50.253Z,-1.40
2018-02-16T22:24:17.729Z,-1.40
2018-02-16T22:26:45.953Z,-1.40
2018-02-16T22:29:13.409Z,-1.40
2018-02-16T22:31:40.868Z,-1.40
2018-02-16T22:34:08.346Z,-1.40
2018-02-16T22:36:36.245Z,-1.40
2018-02-16T22:39:04.469Z,-1.30
2018-02-16T22:41:31.956Z,-1.30
2018-02-16T22:44:00.186Z,-1.20
2018-02-16T22:46:27.641Z,-1.20
2018-02-16T22:48:55.117Z,-1.30
2018-02-16T22:51:22.584Z,-1.30
2018-02-16T22:53:50.107Z,-1.30
2018-02-16T22:56:18.013Z,-1.30
2018-02-16T22:58:46.249Z,-1.30
2018-02-16T23:01:13.718Z,-1.30
2018-02-16T23:03:41.197Z,-1.20
2018-02-16T23:06:08.652Z,-1.30
2018-02-16T23:08:36.212Z,-1.30
2018-02-16T23:11:03.936Z,-1.50
2018-02-16T23:13:31.393Z,-1.40
2018-02-16T23:15:59.620Z,-1.40
2018-02-16T23:18:27.073Z,-1.40
2018-02-16T23:20:54.539Z,-1.40
2018-02-16T23:23:22.760Z,-1.50
2018-02-16T23:25:50.226Z,-1.50
2018-02-16T23:28:17.689Z,-1.40
2018-02-16T23:30:47.049Z,-1.40
2018-02-16T23:33:15.268Z,-1.30
2018-02-16T23:35:42.737Z,-1.40
2018-02-16T23:38:11.670Z,-1.30
2018-02-16T23:40:39.557Z,-1.30
2018-02-16T23:43:06.961Z,-1.30
2018-02-16T23:45:34.998Z,-1.30
2018-02-16T23:48:05.661Z,-1.30
2018-02-16T23:50:33.133Z,-1.30
2018-02-16T23:53:02.819Z,-1.40
2018-02-16T23:55:30.313Z,-1.40
2018-02-16T23:57:58.300Z,-1.50
